sensor_id;sensor_type;location;lat;lon;timestamp;P1;durP1;ratioP1;P2;durP2;ratioP2
52718;SDS011;38616;42.140;24.760;2024-01-30T00:01:38;7.50;;;3.00;;
52718;SDS011;38616;42.140;24.760;2024-01-30T00:04:03;10.00;;;3.42;;
52718;SDS011;38616;42.140;24.760;2024-01-30T00:06:29;8.55;;;4.13;;
52718;SDS011;38616;42.140;24.760;2024-01-30T00:08:54;7.35;;;3.13;;
52718;SDS011;38616;42.140;24.760;2024-01-30T00:11:20;7.03;;;3.20;;
52718;SDS011;38616;42.140;24.760;2024-01-30T00:13:46;6.28;;;3.15;;
52718;SDS011;38616;42.140;24.760;2024-01-30T00:16:21;9.43;;;3.65;;
52718;SDS011;38616;42.140;24.760;2024-01-30T00:18:53;7.78;;;3.47;;
52718;SDS011;38616;42.140;24.760;2024-01-30T00:21:19;7.88;;;3.80;;
52718;SDS011;38616;42.140;24.760;2024-01-30T00:23:45;7.75;;;3.03;;
52718;SDS011;38616;42.140;24.760;2024-01-30T00:26:11;6.72;;;3.40;;
52718;SDS011;38616;42.140;24.760;2024-01-30T00:28:37;7.72;;;3.22;;
52718;SDS011;38616;42.140;24.760;2024-01-30T00:31:03;7.13;;;3.42;;
52718;SDS011;38616;42.140;24.760;2024-01-30T00:33:29;11.57;;;3.63;;
52718;SDS011;38616;42.140;24.760;2024-01-30T00:35:55;8.13;;;3.88;;
52718;SDS011;38616;42.140;24.760;2024-01-30T00:38:20;6.93;;;3.20;;
52718;SDS011;38616;42.140;24.760;2024-01-30T00:40:46;9.18;;;3.50;;
52718;SDS011;38616;42.140;24.760;2024-01-30T00:43:11;8.30;;;3.40;;
52718;SDS011;38616;42.140;24.760;2024-01-30T00:45:37;9.40;;;3.45;;
52718;SDS011;38616;42.140;24.760;2024-01-30T00:48:02;7.55;;;3.25;;
52718;SDS011;38616;42.140;24.760;2024-01-30T00:50:29;8.52;;;3.72;;
52718;SDS011;38616;42.140;24.760;2024-01-30T00:52:54;10.95;;;3.70;;
52718;SDS011;38616;42.140;24.760;2024-01-30T00:55:20;6.85;;;3.20;;
52718;SDS011;38616;42.140;24.760;2024-01-30T00:57:45;9.00;;;4.22;;
52718;SDS011;38616;42.140;24.760;2024-01-30T01:00:12;6.93;;;3.72;;
52718;SDS011;38616;42.140;24.760;2024-01-30T01:02:40;8.13;;;3.58;;
52718;SDS011;38616;42.140;24.760;2024-01-30T01:05:06;8.00;;;3.50;;
52718;SDS011;38616;42.140;24.760;2024-01-30T01:07:31;11.05;;;4.00;;
52718;SDS011;38616;42.140;24.760;2024-01-30T01:09:57;16.08;;;3.83;;
52718;SDS011;38616;42.140;24.760;2024-01-30T01:12:22;8.48;;;3.38;;
52718;SDS011;38616;42.140;24.760;2024-01-30T01:14:48;8.27;;;4.05;;
52718;SDS011;38616;42.140;24.760;2024-01-30T01:17:13;11.90;;;4.28;;
52718;SDS011;38616;42.140;24.760;2024-01-30T01:19:39;7.47;;;3.58;;
52718;SDS011;38616;42.140;24.760;2024-01-30T01:22:04;8.77;;;4.32;;
52718;SDS011;38616;42.140;24.760;2024-01-30T01:24:33;10.50;;;4.47;;
52718;SDS011;38616;42.140;24.760;2024-01-30T01:26:59;10.82;;;4.13;;
52718;SDS011;38616;42.140;24.760;2024-01-30T01:29:24;11.23;;;3.72;;
52718;SDS011;38616;42.140;24.760;2024-01-30T01:31:58;9.57;;;4.25;;
52718;SDS011;38616;42.140;24.760;2024-01-30T01:34:23;9.37;;;3.67;;
52718;SDS011;38616;42.140;24.760;2024-01-30T01:36:50;6.88;;;3.83;;
52718;SDS011;38616;42.140;24.760;2024-01-30T01:39:16;9.10;;;3.70;;
52718;SDS011;38616;42.140;24.760;2024-01-30T01:41:42;11.55;;;3.97;;
52718;SDS011;38616;42.140;24.760;2024-01-30T01:44:08;9.30;;;3.72;;
52718;SDS011;38616;42.140;24.760;2024-01-30T01:46:34;8.57;;;4.03;;
52718;SDS011;38616;42.140;24.760;2024-01-30T01:49:00;16.58;;;3.92;;
52718;SDS011;38616;42.140;24.760;2024-01-30T01:51:27;11.68;;;3.85;;
52718;SDS011;38616;42.140;24.760;2024-01-30T01:53:55;11.18;;;5.53;;
52718;SDS011;38616;42.140;24.760;2024-01-30T01:56:21;18.60;;;5.85;;
52718;SDS011;38616;42.140;24.760;2024-01-30T01:58:48;9.75;;;4.20;;
52718;SDS011;38616;42.140;24.760;2024-01-30T02:01:16;13.90;;;5.25;;
52718;SDS011;38616;42.140;24.760;2024-01-30T02:03:45;12.32;;;5.05;;
52718;SDS011;38616;42.140;24.760;2024-01-30T02:06:11;12.60;;;5.32;;
52718;SDS011;38616;42.140;24.760;2024-01-30T02:08:37;11.20;;;4.60;;
52718;SDS011;38616;42.140;24.760;2024-01-30T02:11:03;10.93;;;4.85;;
52718;SDS011;38616;42.140;24.760;2024-01-30T02:13:29;16.85;;;5.43;;
52718;SDS011;38616;42.140;24.760;2024-01-30T02:15:54;12.57;;;5.57;;
52718;SDS011;38616;42.140;24.760;2024-01-30T02:18:20;10.65;;;4.82;;
52718;SDS011;38616;42.140;24.760;2024-01-30T02:20:48;7.38;;;4.10;;
52718;SDS011;38616;42.140;24.760;2024-01-30T02:23:15;11.20;;;4.35;;
52718;SDS011;38616;42.140;24.760;2024-01-30T02:25:41;10.55;;;5.40;;
52718;SDS011;38616;42.140;24.760;2024-01-30T02:28:11;13.00;;;4.55;;
52718;SDS011;38616;42.140;24.760;2024-01-30T02:30:39;11.82;;;4.40;;
52718;SDS011;38616;42.140;24.760;2024-01-30T02:33:05;10.35;;;4.38;;
52718;SDS011;38616;42.140;24.760;2024-01-30T02:35:31;11.63;;;5.35;;
52718;SDS011;38616;42.140;24.760;2024-01-30T02:37:58;16.55;;;5.45;;
52718;SDS011;38616;42.140;24.760;2024-01-30T02:40:24;10.40;;;4.68;;
52718;SDS011;38616;42.140;24.760;2024-01-30T02:42:49;12.30;;;5.72;;
52718;SDS011;38616;42.140;24.760;2024-01-30T02:45:14;10.27;;;5.25;;
52718;SDS011;38616;42.140;24.760;2024-01-30T02:47:40;12.02;;;5.40;;
52718;SDS011;38616;42.140;24.760;2024-01-30T02:50:06;12.77;;;5.32;;
52718;SDS011;38616;42.140;24.760;2024-01-30T02:52:31;10.57;;;5.03;;
52718;SDS011;38616;42.140;24.760;2024-01-30T02:54:57;12.15;;;5.28;;
52718;SDS011;38616;42.140;24.760;2024-01-30T02:57:23;13.25;;;5.80;;
52718;SDS011;38616;42.140;24.760;2024-01-30T02:59:48;11.10;;;5.53;;
52718;SDS011;38616;42.140;24.760;2024-01-30T03:02:14;12.32;;;5.90;;
52718;SDS011;38616;42.140;24.760;2024-01-30T03:04:42;15.20;;;5.95;;
52718;SDS011;38616;42.140;24.760;2024-01-30T03:07:08;12.77;;;5.45;;
52718;SDS011;38616;42.140;24.760;2024-01-30T03:09:33;11.35;;;5.22;;
52718;SDS011;38616;42.140;24.760;2024-01-30T03:11:59;14.73;;;5.50;;
52718;SDS011;38616;42.140;24.760;2024-01-30T03:14:26;10.50;;;4.90;;
52718;SDS011;38616;42.140;24.760;2024-01-30T03:16:51;11.45;;;5.30;;
52718;SDS011;38616;42.140;24.760;2024-01-30T03:19:17;10.43;;;5.03;;
52718;SDS011;38616;42.140;24.760;2024-01-30T03:21:42;14.30;;;5.40;;
52718;SDS011;38616;42.140;24.760;2024-01-30T03:24:08;14.18;;;6.47;;
52718;SDS011;38616;42.140;24.760;2024-01-30T03:26:34;11.93;;;5.65;;
52718;SDS011;38616;42.140;24.760;2024-01-30T03:28:59;14.60;;;5.32;;
52718;SDS011;38616;42.140;24.760;2024-01-30T03:31:25;13.43;;;5.90;;
52718;SDS011;38616;42.140;24.760;2024-01-30T03:33:50;13.95;;;5.32;;
52718;SDS011;38616;42.140;24.760;2024-01-30T03:36:16;12.20;;;5.35;;
52718;SDS011;38616;42.140;24.760;2024-01-30T03:38:42;10.30;;;5.32;;
52718;SDS011;38616;42.140;24.760;2024-01-30T03:41:11;14.68;;;5.93;;
52718;SDS011;38616;42.140;24.760;2024-01-30T03:43:37;10.75;;;4.93;;
52718;SDS011;38616;42.140;24.760;2024-01-30T03:46:02;15.80;;;5.88;;
52718;SDS011;38616;42.140;24.760;2024-01-30T03:48:28;13.13;;;6.75;;
52718;SDS011;38616;42.140;24.760;2024-01-30T03:50:54;12.45;;;6.00;;
52718;SDS011;38616;42.140;24.760;2024-01-30T03:53:22;14.25;;;6.20;;
52718;SDS011;38616;42.140;24.760;2024-01-30T03:55:47;14.13;;;6.40;;
52718;SDS011;38616;42.140;24.760;2024-01-30T03:58:13;14.05;;;5.80;;
52718;SDS011;38616;42.140;24.760;2024-01-30T04:00:38;14.25;;;5.90;;
52718;SDS011;38616;42.140;24.760;2024-01-30T04:03:05;16.90;;;5.85;;
52718;SDS011;38616;42.140;24.760;2024-01-30T04:05:31;16.27;;;6.72;;
52718;SDS011;38616;42.140;24.760;2024-01-30T04:07:57;15.77;;;6.93;;
52718;SDS011;38616;42.140;24.760;2024-01-30T04:10:23;14.90;;;6.60;;
52718;SDS011;38616;42.140;24.760;2024-01-30T04:12:49;14.20;;;6.15;;
52718;SDS011;38616;42.140;24.760;2024-01-30T04:15:15;18.45;;;7.18;;
52718;SDS011;38616;42.140;24.760;2024-01-30T04:17:41;14.07;;;6.28;;
52718;SDS011;38616;42.140;24.760;2024-01-30T04:20:07;12.57;;;5.57;;
52718;SDS011;38616;42.140;24.760;2024-01-30T04:22:33;11.05;;;4.78;;
52718;SDS011;38616;42.140;24.760;2024-01-30T04:24:58;13.02;;;5.55;;
52718;SDS011;38616;42.140;24.760;2024-01-30T04:27:24;12.45;;;5.45;;
52718;SDS011;38616;42.140;24.760;2024-01-30T04:29:49;17.17;;;5.65;;
52718;SDS011;38616;42.140;24.760;2024-01-30T04:32:15;12.27;;;5.57;;
52718;SDS011;38616;42.140;24.760;2024-01-30T04:34:40;13.80;;;6.25;;
52718;SDS011;38616;42.140;24.760;2024-01-30T04:37:05;15.98;;;6.10;;
52718;SDS011;38616;42.140;24.760;2024-01-30T04:39:32;13.52;;;6.32;;
52718;SDS011;38616;42.140;24.760;2024-01-30T04:41:58;13.57;;;6.78;;
52718;SDS011;38616;42.140;24.760;2024-01-30T04:44:24;15.32;;;6.75;;
52718;SDS011;38616;42.140;24.760;2024-01-30T04:46:53;16.20;;;6.30;;
52718;SDS011;38616;42.140;24.760;2024-01-30T04:49:18;15.85;;;6.45;;
52718;SDS011;38616;42.140;24.760;2024-01-30T04:51:44;15.30;;;6.18;;
52718;SDS011;38616;42.140;24.760;2024-01-30T04:54:09;15.25;;;6.10;;
52718;SDS011;38616;42.140;24.760;2024-01-30T04:56:35;14.95;;;6.65;;
52718;SDS011;38616;42.140;24.760;2024-01-30T04:59:01;16.65;;;6.25;;
52718;SDS011;38616;42.140;24.760;2024-01-30T05:01:27;16.65;;;5.90;;
52718;SDS011;38616;42.140;24.760;2024-01-30T05:03:53;16.30;;;5.75;;
52718;SDS011;38616;42.140;24.760;2024-01-30T05:06:27;12.60;;;5.75;;
52718;SDS011;38616;42.140;24.760;2024-01-30T05:08:55;6.30;;;3.95;;
52718;SDS011;38616;42.140;24.760;2024-01-30T05:11:20;14.48;;;5.07;;
52718;SDS011;38616;42.140;24.760;2024-01-30T05:13:46;13.70;;;5.80;;
52718;SDS011;38616;42.140;24.760;2024-01-30T05:16:14;12.32;;;5.57;;
52718;SDS011;38616;42.140;24.760;2024-01-30T05:18:40;11.82;;;5.13;;
52718;SDS011;38616;42.140;24.760;2024-01-30T05:21:06;11.73;;;5.40;;
52718;SDS011;38616;42.140;24.760;2024-01-30T05:23:32;13.95;;;5.00;;
52718;SDS011;38616;42.140;24.760;2024-01-30T05:25:58;12.93;;;5.85;;
52718;SDS011;38616;42.140;24.760;2024-01-30T05:28:25;15.00;;;5.80;;
52718;SDS011;38616;42.140;24.760;2024-01-30T05:30:51;16.65;;;6.68;;
52718;SDS011;38616;42.140;24.760;2024-01-30T05:33:17;14.73;;;5.95;;
52718;SDS011;38616;42.140;24.760;2024-01-30T05:35:42;17.35;;;5.93;;
52718;SDS011;38616;42.140;24.760;2024-01-30T05:38:07;15.48;;;6.25;;
52718;SDS011;38616;42.140;24.760;2024-01-30T05:40:33;12.45;;;5.38;;
52718;SDS011;38616;42.140;24.760;2024-01-30T05:42:58;13.35;;;5.30;;
52718;SDS011;38616;42.140;24.760;2024-01-30T05:45:27;15.15;;;6.03;;
52718;SDS011;38616;42.140;24.760;2024-01-30T05:47:53;15.23;;;5.88;;
52718;SDS011;38616;42.140;24.760;2024-01-30T05:50:19;16.92;;;5.72;;
52718;SDS011;38616;42.140;24.760;2024-01-30T05:52:45;12.05;;;5.63;;
52718;SDS011;38616;42.140;24.760;2024-01-30T05:55:11;13.68;;;5.25;;
52718;SDS011;38616;42.140;24.760;2024-01-30T05:57:37;12.73;;;6.15;;
52718;SDS011;38616;42.140;24.760;2024-01-30T06:00:05;18.23;;;6.18;;
52718;SDS011;38616;42.140;24.760;2024-01-30T06:02:31;14.95;;;5.30;;
52718;SDS011;38616;42.140;24.760;2024-01-30T06:04:58;17.80;;;7.28;;
52718;SDS011;38616;42.140;24.760;2024-01-30T06:09:56;15.13;;;6.72;;
52718;SDS011;38616;42.140;24.760;2024-01-30T06:12:21;12.82;;;6.00;;
52718;SDS011;38616;42.140;24.760;2024-01-30T06:14:48;16.45;;;6.78;;
52718;SDS011;38616;42.140;24.760;2024-01-30T06:17:14;19.38;;;7.53;;
52718;SDS011;38616;42.140;24.760;2024-01-30T06:19:39;20.60;;;7.47;;
52718;SDS011;38616;42.140;24.760;2024-01-30T06:22:05;19.48;;;7.65;;
52718;SDS011;38616;42.140;24.760;2024-01-30T06:24:30;16.15;;;7.15;;
52718;SDS011;38616;42.140;24.760;2024-01-30T06:26:56;23.23;;;7.22;;
52718;SDS011;38616;42.140;24.760;2024-01-30T06:29:22;17.27;;;7.10;;
52718;SDS011;38616;42.140;24.760;2024-01-30T06:31:49;14.73;;;6.47;;
52718;SDS011;38616;42.140;24.760;2024-01-30T06:34:15;15.88;;;6.75;;
52718;SDS011;38616;42.140;24.760;2024-01-30T06:36:41;17.52;;;7.57;;
52718;SDS011;38616;42.140;24.760;2024-01-30T06:39:07;17.15;;;7.78;;
52718;SDS011;38616;42.140;24.760;2024-01-30T06:41:32;18.20;;;7.32;;
52718;SDS011;38616;42.140;24.760;2024-01-30T06:43:58;18.70;;;7.80;;
52718;SDS011;38616;42.140;24.760;2024-01-30T06:46:23;17.58;;;8.63;;
52718;SDS011;38616;42.140;24.760;2024-01-30T06:48:49;17.83;;;7.78;;
52718;SDS011;38616;42.140;24.760;2024-01-30T06:51:14;16.73;;;7.47;;
52718;SDS011;38616;42.140;24.760;2024-01-30T06:53:40;22.23;;;8.23;;
52718;SDS011;38616;42.140;24.760;2024-01-30T06:56:05;13.27;;;7.30;;
52718;SDS011;38616;42.140;24.760;2024-01-30T06:58:31;19.58;;;7.75;;
52718;SDS011;38616;42.140;24.760;2024-01-30T07:00:57;20.05;;;8.15;;
52718;SDS011;38616;42.140;24.760;2024-01-30T07:03:23;18.42;;;8.63;;
52718;SDS011;38616;42.140;24.760;2024-01-30T07:05:49;22.00;;;7.35;;
52718;SDS011;38616;42.140;24.760;2024-01-30T07:08:15;20.63;;;7.72;;
52718;SDS011;38616;42.140;24.760;2024-01-30T07:10:44;20.70;;;7.80;;
52718;SDS011;38616;42.140;24.760;2024-01-30T07:13:10;16.45;;;7.68;;
52718;SDS011;38616;42.140;24.760;2024-01-30T07:15:36;14.77;;;7.22;;
52718;SDS011;38616;42.140;24.760;2024-01-30T07:18:02;17.08;;;7.25;;
52718;SDS011;38616;42.140;24.760;2024-01-30T07:20:28;17.75;;;6.72;;
52718;SDS011;38616;42.140;24.760;2024-01-30T07:22:55;15.40;;;6.37;;
52718;SDS011;38616;42.140;24.760;2024-01-30T07:25:21;14.32;;;6.25;;
52718;SDS011;38616;42.140;24.760;2024-01-30T07:27:46;19.67;;;7.00;;
52718;SDS011;38616;42.140;24.760;2024-01-30T07:30:12;12.50;;;6.03;;
52718;SDS011;38616;42.140;24.760;2024-01-30T07:32:38;19.38;;;6.75;;
52718;SDS011;38616;42.140;24.760;2024-01-30T07:35:03;13.80;;;6.72;;
52718;SDS011;38616;42.140;24.760;2024-01-30T07:37:29;17.58;;;7.22;;
52718;SDS011;38616;42.140;24.760;2024-01-30T07:42:22;19.67;;;5.88;;
52718;SDS011;38616;42.140;24.760;2024-01-30T07:44:48;11.43;;;5.35;;
52718;SDS011;38616;42.140;24.760;2024-01-30T07:47:13;14.55;;;6.65;;
52718;SDS011;38616;42.140;24.760;2024-01-30T07:49:39;10.60;;;5.47;;
52718;SDS011;38616;42.140;24.760;2024-01-30T07:52:05;14.13;;;6.25;;
52718;SDS011;38616;42.140;24.760;2024-01-30T07:54:31;14.30;;;5.65;;
52718;SDS011;38616;42.140;24.760;2024-01-30T07:56:58;17.38;;;6.32;;
52718;SDS011;38616;42.140;24.760;2024-01-30T07:59:24;13.10;;;5.88;;
52718;SDS011;38616;42.140;24.760;2024-01-30T08:01:50;13.35;;;5.53;;
52718;SDS011;38616;42.140;24.760;2024-01-30T08:04:15;16.38;;;5.15;;
52718;SDS011;38616;42.140;24.760;2024-01-30T08:06:40;14.38;;;5.57;;
52718;SDS011;38616;42.140;24.760;2024-01-30T08:09:06;13.95;;;6.10;;
52718;SDS011;38616;42.140;24.760;2024-01-30T08:11:32;14.05;;;5.85;;
52718;SDS011;38616;42.140;24.760;2024-01-30T08:13:58;9.13;;;5.40;;
52718;SDS011;38616;42.140;24.760;2024-01-30T08:16:23;10.82;;;4.75;;
52718;SDS011;38616;42.140;24.760;2024-01-30T08:18:48;16.42;;;5.10;;
52718;SDS011;38616;42.140;24.760;2024-01-30T08:21:16;12.15;;;5.28;;
52718;SDS011;38616;42.140;24.760;2024-01-30T08:23:42;14.77;;;4.82;;
52718;SDS011;38616;42.140;24.760;2024-01-30T08:26:08;13.32;;;5.70;;
52718;SDS011;38616;42.140;24.760;2024-01-30T08:28:33;14.52;;;4.93;;
52718;SDS011;38616;42.140;24.760;2024-01-30T08:30:59;13.05;;;5.50;;
52718;SDS011;38616;42.140;24.760;2024-01-30T08:33:24;14.13;;;4.03;;
52718;SDS011;38616;42.140;24.760;2024-01-30T08:38:18;19.33;;;10.57;;
52718;SDS011;38616;42.140;24.760;2024-01-30T08:40:43;8.00;;;4.57;;
52718;SDS011;38616;42.140;24.760;2024-01-30T08:43:09;7.05;;;3.97;;
52718;SDS011;38616;42.140;24.760;2024-01-30T08:45:35;13.10;;;4.82;;
52718;SDS011;38616;42.140;24.760;2024-01-30T08:48:00;6.93;;;3.30;;
52718;SDS011;38616;42.140;24.760;2024-01-30T08:50:26;11.68;;;4.63;;
52718;SDS011;38616;42.140;24.760;2024-01-30T08:52:51;8.60;;;3.60;;
52718;SDS011;38616;42.140;24.760;2024-01-30T08:55:17;7.22;;;3.20;;
52718;SDS011;38616;42.140;24.760;2024-01-30T08:57:43;7.97;;;3.90;;
52718;SDS011;38616;42.140;24.760;2024-01-30T09:00:08;13.65;;;4.70;;
52718;SDS011;38616;42.140;24.760;2024-01-30T09:02:36;17.60;;;5.75;;
52718;SDS011;38616;42.140;24.760;2024-01-30T09:05:01;10.88;;;4.63;;
52718;SDS011;38616;42.140;24.760;2024-01-30T09:07:27;12.00;;;4.32;;
52718;SDS011;38616;42.140;24.760;2024-01-30T09:09:53;9.45;;;4.30;;
52718;SDS011;38616;42.140;24.760;2024-01-30T09:12:18;7.78;;;3.35;;
52718;SDS011;38616;42.140;24.760;2024-01-30T09:14:46;6.70;;;3.22;;
52718;SDS011;38616;42.140;24.760;2024-01-30T09:17:11;11.27;;;4.50;;
52718;SDS011;38616;42.140;24.760;2024-01-30T09:53:15;10.45;;;4.75;;
52718;SDS011;38616;42.140;24.760;2024-01-30T09:55:42;12.38;;;4.60;;
52718;SDS011;38616;42.140;24.760;2024-01-30T09:58:08;19.50;;;5.20;;
52718;SDS011;38616;42.140;24.760;2024-01-30T10:00:34;14.30;;;5.05;;
52718;SDS011;38616;42.140;24.760;2024-01-30T10:02:59;12.25;;;4.75;;
52718;SDS011;38616;42.140;24.760;2024-01-30T10:05:28;11.48;;;4.72;;
52718;SDS011;38616;42.140;24.760;2024-01-30T10:07:58;11.98;;;5.30;;
52718;SDS011;38616;42.140;24.760;2024-01-30T10:10:24;14.75;;;5.85;;
52718;SDS011;38616;42.140;24.760;2024-01-30T10:12:49;12.98;;;5.20;;
52718;SDS011;38616;42.140;24.760;2024-01-30T10:15:15;12.50;;;5.40;;
52718;SDS011;38616;42.140;24.760;2024-01-30T10:17:43;12.20;;;4.53;;
52718;SDS011;38616;42.140;24.760;2024-01-30T10:20:12;18.58;;;5.00;;
52718;SDS011;38616;42.140;24.760;2024-01-30T10:22:39;13.65;;;5.50;;
52718;SDS011;38616;42.140;24.760;2024-01-30T10:25:10;17.00;;;5.65;;
52718;SDS011;38616;42.140;24.760;2024-01-30T10:27:36;20.10;;;7.13;;
52718;SDS011;38616;42.140;24.760;2024-01-30T10:30:01;11.88;;;4.88;;
52718;SDS011;38616;42.140;24.760;2024-01-30T10:32:29;12.90;;;5.67;;
52718;SDS011;38616;42.140;24.760;2024-01-30T10:34:54;12.32;;;5.68;;
52718;SDS011;38616;42.140;24.760;2024-01-30T10:37:20;11.60;;;5.00;;
52718;SDS011;38616;42.140;24.760;2024-01-30T10:39:50;12.07;;;5.68;;
52718;SDS011;38616;42.140;24.760;2024-01-30T10:42:18;12.07;;;5.05;;
52718;SDS011;38616;42.140;24.760;2024-01-30T10:47:37;14.52;;;5.50;;
52718;SDS011;38616;42.140;24.760;2024-01-30T10:50:06;16.40;;;5.57;;
52718;SDS011;38616;42.140;24.760;2024-01-30T10:52:33;17.48;;;5.25;;
52718;SDS011;38616;42.140;24.760;2024-01-30T10:54:59;11.15;;;5.82;;
52718;SDS011;38616;42.140;24.760;2024-01-30T10:57:26;15.23;;;5.35;;
52718;SDS011;38616;42.140;24.760;2024-01-30T10:59:56;9.07;;;4.75;;
52718;SDS011;38616;42.140;24.760;2024-01-30T11:02:23;17.42;;;6.55;;
52718;SDS011;38616;42.140;24.760;2024-01-30T11:04:54;10.95;;;5.28;;
52718;SDS011;38616;42.140;24.760;2024-01-30T11:07:25;8.38;;;4.45;;
52718;SDS011;38616;42.140;24.760;2024-01-30T11:12:23;7.80;;;4.00;;
52718;SDS011;38616;42.140;24.760;2024-01-30T11:14:50;15.70;;;4.63;;
52718;SDS011;38616;42.140;24.760;2024-01-30T11:17:42;8.43;;;3.65;;
52718;SDS011;38616;42.140;24.760;2024-01-30T11:20:21;7.18;;;3.50;;
52718;SDS011;38616;42.140;24.760;2024-01-30T11:22:56;6.88;;;3.28;;
52718;SDS011;38616;42.140;24.760;2024-01-30T11:25:22;7.07;;;3.72;;
52718;SDS011;38616;42.140;24.760;2024-01-30T11:27:52;7.13;;;3.53;;
52718;SDS011;38616;42.140;24.760;2024-01-30T11:30:27;8.93;;;3.72;;
52718;SDS011;38616;42.140;24.760;2024-01-30T11:32:59;6.13;;;2.70;;
52718;SDS011;38616;42.140;24.760;2024-01-30T11:35:41;7.55;;;3.35;;
52718;SDS011;38616;42.140;24.760;2024-01-30T11:38:08;6.07;;;3.25;;
52718;SDS011;38616;42.140;24.760;2024-01-30T11:40:36;7.15;;;3.78;;
52718;SDS011;38616;42.140;24.760;2024-01-30T11:43:04;6.53;;;2.58;;
52718;SDS011;38616;42.140;24.760;2024-01-30T11:45:30;6.32;;;2.17;;
52718;SDS011;38616;42.140;24.760;2024-01-30T11:47:57;7.05;;;3.30;;
52718;SDS011;38616;42.140;24.760;2024-01-30T11:50:25;9.90;;;3.45;;
52718;SDS011;38616;42.140;24.760;2024-01-30T11:52:51;9.38;;;2.97;;
52718;SDS011;38616;42.140;24.760;2024-01-30T11:55:16;6.30;;;3.30;;
52718;SDS011;38616;42.140;24.760;2024-01-30T11:57:42;5.70;;;3.03;;
52718;SDS011;38616;42.140;24.760;2024-01-30T12:00:15;5.30;;;2.67;;
52718;SDS011;38616;42.140;24.760;2024-01-30T12:02:42;6.20;;;2.97;;
52718;SDS011;38616;42.140;24.760;2024-01-30T12:05:08;7.25;;;2.65;;
52718;SDS011;38616;42.140;24.760;2024-01-30T12:07:37;3.00;;;1.77;;
52718;SDS011;38616;42.140;24.760;2024-01-30T12:10:02;5.18;;;2.28;;
52718;SDS011;38616;42.140;24.760;2024-01-30T12:12:30;7.05;;;3.00;;
52718;SDS011;38616;42.140;24.760;2024-01-30T12:14:56;5.78;;;2.97;;
52718;SDS011;38616;42.140;24.760;2024-01-30T12:17:29;5.05;;;2.35;;
52718;SDS011;38616;42.140;24.760;2024-01-30T12:20:05;3.55;;;2.08;;
52718;SDS011;38616;42.140;24.760;2024-01-30T12:22:47;11.35;;;2.60;;
52718;SDS011;38616;42.140;24.760;2024-01-30T12:25:14;5.35;;;2.45;;
52718;SDS011;38616;42.140;24.760;2024-01-30T12:27:46;7.07;;;2.67;;
52718;SDS011;38616;42.140;24.760;2024-01-30T12:30:17;4.57;;;2.53;;
52718;SDS011;38616;42.140;24.760;2024-01-30T12:32:49;5.05;;;2.50;;
52718;SDS011;38616;42.140;24.760;2024-01-30T12:35:16;4.45;;;2.65;;
52718;SDS011;38616;42.140;24.760;2024-01-30T12:37:44;8.38;;;2.88;;
52718;SDS011;38616;42.140;24.760;2024-01-30T12:40:11;4.85;;;3.10;;
52718;SDS011;38616;42.140;24.760;2024-01-30T12:42:39;5.75;;;2.95;;
52718;SDS011;38616;42.140;24.760;2024-01-30T12:47:33;4.53;;;2.63;;
52718;SDS011;38616;42.140;24.760;2024-01-30T12:49:59;7.55;;;2.83;;
52718;SDS011;38616;42.140;24.760;2024-01-30T12:52:24;9.25;;;3.30;;
52718;SDS011;38616;42.140;24.760;2024-01-30T12:54:52;7.03;;;2.90;;
52718;SDS011;38616;42.140;24.760;2024-01-30T12:57:18;3.97;;;2.80;;
52718;SDS011;38616;42.140;24.760;2024-01-30T12:59:44;5.05;;;2.72;;
52718;SDS011;38616;42.140;24.760;2024-01-30T13:02:10;4.97;;;2.83;;
52718;SDS011;38616;42.140;24.760;2024-01-30T13:04:37;6.40;;;3.22;;
52718;SDS011;38616;42.140;24.760;2024-01-30T13:07:03;6.65;;;2.65;;
52718;SDS011;38616;42.140;24.760;2024-01-30T13:09:29;5.25;;;2.63;;
52718;SDS011;38616;42.140;24.760;2024-01-30T13:11:56;5.75;;;2.28;;
52718;SDS011;38616;42.140;24.760;2024-01-30T13:14:24;7.45;;;2.88;;
52718;SDS011;38616;42.140;24.760;2024-01-30T13:16:49;7.28;;;2.53;;
52718;SDS011;38616;42.140;24.760;2024-01-30T13:19:16;5.65;;;2.78;;
52718;SDS011;38616;42.140;24.760;2024-01-30T13:21:42;7.55;;;2.83;;
52718;SDS011;38616;42.140;24.760;2024-01-30T13:24:08;8.10;;;3.35;;
52718;SDS011;38616;42.140;24.760;2024-01-30T13:26:34;7.80;;;3.40;;
52718;SDS011;38616;42.140;24.760;2024-01-30T13:29:06;7.45;;;3.40;;
52718;SDS011;38616;42.140;24.760;2024-01-30T13:31:31;5.38;;;3.20;;
52718;SDS011;38616;42.140;24.760;2024-01-30T13:33:57;9.93;;;3.30;;
52718;SDS011;38616;42.140;24.760;2024-01-30T13:36:22;6.53;;;3.08;;
52718;SDS011;38616;42.140;24.760;2024-01-30T13:38:48;9.27;;;3.47;;
52718;SDS011;38616;42.140;24.760;2024-01-30T13:41:13;10.52;;;3.75;;
52718;SDS011;38616;42.140;24.760;2024-01-30T13:43:43;7.40;;;3.65;;
52718;SDS011;38616;42.140;24.760;2024-01-30T13:48:38;8.68;;;4.40;;
52718;SDS011;38616;42.140;24.760;2024-01-30T13:51:04;7.90;;;3.55;;
52718;SDS011;38616;42.140;24.760;2024-01-30T13:53:30;8.32;;;4.10;;
52718;SDS011;38616;42.140;24.760;2024-01-30T13:55:55;8.30;;;3.78;;
52718;SDS011;38616;42.140;24.760;2024-01-30T13:58:21;7.13;;;3.58;;
52718;SDS011;38616;42.140;24.760;2024-01-30T14:00:48;9.75;;;3.63;;
52718;SDS011;38616;42.140;24.760;2024-01-30T14:03:14;6.97;;;3.45;;
52718;SDS011;38616;42.140;24.760;2024-01-30T14:05:39;6.60;;;3.05;;
52718;SDS011;38616;42.140;24.760;2024-01-30T14:08:05;7.82;;;3.55;;
52718;SDS011;38616;42.140;24.760;2024-01-30T14:10:32;8.60;;;3.50;;
52718;SDS011;38616;42.140;24.760;2024-01-30T14:12:58;10.35;;;3.97;;
52718;SDS011;38616;42.140;24.760;2024-01-30T14:15:23;6.90;;;3.78;;
52718;SDS011;38616;42.140;24.760;2024-01-30T14:17:48;11.63;;;4.05;;
52718;SDS011;38616;42.140;24.760;2024-01-30T14:20:15;11.88;;;3.65;;
52718;SDS011;38616;42.140;24.760;2024-01-30T14:22:43;9.70;;;4.18;;
52718;SDS011;38616;42.140;24.760;2024-01-30T14:25:09;9.52;;;3.78;;
52718;SDS011;38616;42.140;24.760;2024-01-30T14:27:34;8.02;;;4.10;;
52718;SDS011;38616;42.140;24.760;2024-01-30T14:30:00;12.52;;;4.53;;
52718;SDS011;38616;42.140;24.760;2024-01-30T14:32:26;15.88;;;4.60;;
52718;SDS011;38616;42.140;24.760;2024-01-30T14:34:51;7.53;;;3.33;;
52718;SDS011;38616;42.140;24.760;2024-01-30T14:37:18;9.07;;;4.43;;
52718;SDS011;38616;42.140;24.760;2024-01-30T14:39:45;9.13;;;4.03;;
52718;SDS011;38616;42.140;24.760;2024-01-30T14:42:12;9.50;;;3.83;;
52718;SDS011;38616;42.140;24.760;2024-01-30T14:44:38;7.43;;;3.22;;
52718;SDS011;38616;42.140;24.760;2024-01-30T14:47:04;8.48;;;3.50;;
52718;SDS011;38616;42.140;24.760;2024-01-30T14:49:30;9.43;;;4.28;;
52718;SDS011;38616;42.140;24.760;2024-01-30T14:51:55;7.88;;;3.35;;
52718;SDS011;38616;42.140;24.760;2024-01-30T14:54:21;8.27;;;3.35;;
52718;SDS011;38616;42.140;24.760;2024-01-30T14:56:46;6.05;;;2.90;;
52718;SDS011;38616;42.140;24.760;2024-01-30T14:59:12;6.55;;;3.08;;
52718;SDS011;38616;42.140;24.760;2024-01-30T15:01:37;10.13;;;3.78;;
52718;SDS011;38616;42.140;24.760;2024-01-30T15:04:03;9.07;;;3.40;;
52718;SDS011;38616;42.140;24.760;2024-01-30T15:06:29;7.68;;;4.00;;
52718;SDS011;38616;42.140;24.760;2024-01-30T15:08:55;15.98;;;4.60;;
52718;SDS011;38616;42.140;24.760;2024-01-30T15:11:20;8.60;;;3.90;;
52718;SDS011;38616;42.140;24.760;2024-01-30T15:13:46;12.00;;;4.63;;